createdAt,value
2019-01-29T00:02:04.511Z,87.15
2019-01-29T00:04:36.377Z,87.15
2019-01-29T00:07:09.024Z,87.14
2019-01-29T00:09:41.930Z,87.06
2019-01-29T00:12:14.651Z,87.44
2019-01-29T00:14:47.268Z,87.41
2019-01-29T00:17:19.900Z,87.40
2019-01-29T00:19:53.979Z,87.42
2019-01-29T00:22:33.258Z,87.61
2019-01-29T00:25:01.127Z,87.91
2019-01-29T00:27:33.755Z,88.01
2019-01-29T00:30:08.007Z,88.32
2019-01-29T00:32:40.726Z,88.45
2019-01-29T00:35:13.819Z,88.48
2019-01-29T00:37:46.521Z,88.29
2019-01-29T00:40:19.422Z,88.13
2019-01-29T00:42:52.157Z,88.25
2019-01-29T00:45:24.706Z,88.25
2019-01-29T00:47:57.495Z,88.37
2019-01-29T00:50:30.219Z,88.41
2019-01-29T00:53:02.993Z,88.35
2019-01-29T00:55:35.671Z,88.38
2019-01-29T00:58:08.486Z,88.36
2019-01-29T01:00:41.155Z,88.39
2019-01-29T01:03:13.818Z,88.31
2019-01-29T01:05:46.691Z,88.34
2019-01-29T01:08:19.265Z,88.22
2019-01-29T01:10:51.856Z,88.41
2019-01-29T01:13:24.481Z,88.46
2019-01-29T01:15:57.174Z,88.50
2019-01-29T01:18:29.812Z,88.11
2019-01-29T01:21:02.531Z,88.18
2019-01-29T01:23:35.235Z,87.76
2019-01-29T01:26:07.905Z,87.91
2019-01-29T01:28:40.583Z,87.93
2019-01-29T01:31:13.251Z,87.78
2019-01-29T01:33:45.760Z,87.57
2019-01-29T01:36:18.498Z,87.81
2019-01-29T01:38:51.198Z,88.00
2019-01-29T01:41:23.830Z,88.00
2019-01-29T01:43:56.536Z,88.14
2019-01-29T01:46:29.186Z,88.29
2019-01-29T01:49:04.646Z,88.36
2019-01-29T01:51:37.291Z,88.06
2019-01-29T01:54:09.990Z,87.99
2019-01-29T01:56:42.638Z,87.67
2019-01-29T01:59:15.267Z,87.32
2019-01-29T02:01:47.954Z,87.42
2019-01-29T02:04:20.613Z,87.99
2019-01-29T02:06:53.178Z,88.43
2019-01-29T02:09:26.998Z,88.53
2019-01-29T02:11:59.661Z,88.30
2019-01-29T02:14:32.293Z,88.71
2019-01-29T02:17:05.153Z,89.01
2019-01-29T02:19:38.218Z,89.00
2019-01-29T02:22:11.286Z,88.63
2019-01-29T02:24:43.995Z,87.87
2019-01-29T02:27:16.745Z,87.37
2019-01-29T02:29:49.377Z,86.73
2019-01-29T02:32:22.042Z,86.70
2019-01-29T02:34:54.580Z,86.39
2019-01-29T02:37:27.172Z,86.49
2019-01-29T02:39:59.927Z,86.26
2019-01-29T02:42:32.824Z,87.00
2019-01-29T02:45:08.029Z,87.96
2019-01-29T02:47:40.600Z,88.60
2019-01-29T02:50:14.174Z,88.64
2019-01-29T02:52:46.815Z,88.82
2019-01-29T02:55:19.439Z,89.11
2019-01-29T02:57:52.118Z,89.09
2019-01-29T03:00:28.459Z,88.55
2019-01-29T03:03:01.069Z,88.40
2019-01-29T03:05:33.757Z,88.04
2019-01-29T03:08:06.448Z,88.58
2019-01-29T03:10:39.117Z,88.53
2019-01-29T03:13:11.825Z,88.50
2019-01-29T03:15:44.701Z,88.62
2019-01-29T03:18:17.440Z,89.44
2019-01-29T03:20:50.204Z,90.00
2019-01-29T03:23:27.422Z,90.38
2019-01-29T03:25:58.527Z,90.53
2019-01-29T03:28:31.112Z,90.84
2019-01-29T03:31:03.760Z,90.65
2019-01-29T03:33:36.571Z,89.61
2019-01-29T03:36:09.388Z,89.50
2019-01-29T03:38:42.021Z,89.81
2019-01-29T03:41:14.690Z,90.20
2019-01-29T03:43:47.393Z,90.33
2019-01-29T03:46:20.162Z,90.53
2019-01-29T03:48:52.779Z,90.95
2019-01-29T03:51:25.415Z,91.11
2019-01-29T03:53:57.978Z,91.23
2019-01-29T03:56:30.643Z,90.91
2019-01-29T03:59:03.390Z,90.99
2019-01-29T04:01:35.235Z,91.25
2019-01-29T04:04:07.981Z,91.23
2019-01-29T04:06:40.579Z,91.22
2019-01-29T04:09:13.686Z,91.15
2019-01-29T04:11:46.321Z,91.02
2019-01-29T04:14:18.987Z,91.23
2019-01-29T04:16:51.725Z,91.56
2019-01-29T04:19:25.502Z,91.26
2019-01-29T04:21:58.121Z,91.02
2019-01-29T04:24:30.739Z,90.96
2019-01-29T04:27:03.390Z,90.84
2019-01-29T04:29:36.050Z,90.13
2019-01-29T04:32:08.916Z,90.60
2019-01-29T04:34:41.532Z,91.18
2019-01-29T04:37:14.189Z,91.59
2019-01-29T04:39:46.975Z,91.78
2019-01-29T04:42:19.616Z,91.80
2019-01-29T04:44:52.386Z,91.08
2019-01-29T04:47:25.031Z,91.38
2019-01-29T04:49:57.278Z,91.40
2019-01-29T04:52:29.873Z,91.40
2019-01-29T04:55:02.501Z,91.16
2019-01-29T04:57:35.130Z,91.42
2019-01-29T05:00:20.437Z,91.15
2019-01-29T05:02:53.126Z,90.84
2019-01-29T05:05:26.020Z,90.95
2019-01-29T05:07:58.595Z,91.09
2019-01-29T05:10:31.370Z,91.18
2019-01-29T05:13:04.149Z,91.34
2019-01-29T05:15:36.803Z,91.47
2019-01-29T05:18:09.428Z,90.93
2019-01-29T05:20:42.140Z,90.46
2019-01-29T05:23:14.804Z,90.13
2019-01-29T05:25:47.409Z,90.37
2019-01-29T05:28:20.160Z,90.47
2019-01-29T05:30:52.716Z,90.43
2019-01-29T05:33:25.483Z,90.15
2019-01-29T05:35:58.049Z,90.71
2019-01-29T05:38:30.744Z,90.55
2019-01-29T05:41:03.383Z,90.46
2019-01-29T05:43:36.060Z,90.83
2019-01-29T05:46:08.767Z,91.04
2019-01-29T05:48:41.382Z,91.17
2019-01-29T05:51:14.109Z,91.41
2019-01-29T05:53:46.762Z,91.44
2019-01-29T05:56:20.666Z,91.19
2019-01-29T05:58:53.493Z,89.42
2019-01-29T06:01:26.052Z,89.55
2019-01-29T06:03:58.723Z,90.17
2019-01-29T06:06:31.278Z,90.34
2019-01-29T06:09:05.684Z,90.50
2019-01-29T06:11:38.396Z,90.71
2019-01-29T06:14:11.091Z,90.76
2019-01-29T06:16:43.844Z,90.58
2019-01-29T06:19:16.525Z,90.07
2019-01-29T06:21:49.149Z,89.93
2019-01-29T06:24:25.805Z,90.43
2019-01-29T06:26:56.107Z,90.53
2019-01-29T06:29:28.786Z,90.38
2019-01-29T06:32:01.465Z,90.48
2019-01-29T06:34:34.350Z,90.48
2019-01-29T06:37:07.109Z,90.40
2019-01-29T06:39:39.772Z,90.33
2019-01-29T06:42:12.618Z,90.31
2019-01-29T06:44:45.437Z,90.31
2019-01-29T06:47:18.505Z,90.40
2019-01-29T06:49:51.149Z,90.33
2019-01-29T06:52:23.740Z,90.28
2019-01-29T06:54:56.417Z,90.16
2019-01-29T06:57:29.002Z,90.08
2019-01-29T07:00:01.633Z,89.86
2019-01-29T07:02:34.233Z,89.55
2019-01-29T07:05:08.450Z,89.31
2019-01-29T07:07:41.414Z,89.45
2019-01-29T07:10:20.030Z,89.43
2019-01-29T07:12:52.770Z,89.28
2019-01-29T07:15:44.659Z,89.15
2019-01-29T07:18:37.090Z,89.35
2019-01-29T07:21:10.688Z,88.78
2019-01-29T07:23:43.460Z,87.03
2019-01-29T07:26:16.185Z,88.73
2019-01-29T07:28:48.916Z,87.65
2019-01-29T07:31:21.568Z,87.60
2019-01-29T07:33:56.962Z,87.48
2019-01-29T07:36:29.568Z,87.32
2019-01-29T07:39:02.218Z,87.29
2019-01-29T07:41:35.075Z,87.95
2019-01-29T07:44:07.787Z,87.97
2019-01-29T07:46:40.405Z,88.37
2019-01-29T07:49:13.068Z,89.12
2019-01-29T07:51:45.670Z,89.42
2019-01-29T07:54:18.525Z,89.39
2019-01-29T07:56:51.126Z,86.49
2019-01-29T07:59:32.483Z,86.51
2019-01-29T08:01:58.070Z,87.97
2019-01-29T08:04:30.753Z,89.05
2019-01-29T08:07:03.346Z,89.73
2019-01-29T08:09:35.983Z,89.10
2019-01-29T08:12:08.647Z,86.86
2019-01-29T08:14:41.252Z,85.91
2019-01-29T08:17:13.947Z,85.82
2019-01-29T08:19:46.592Z,82.29
2019-01-29T08:22:19.242Z,76.64
2019-01-29T08:25:01.230Z,72.83
2019-01-29T08:27:26.232Z,70.19
2019-01-29T08:29:58.876Z,67.65
2019-01-29T08:32:31.466Z,59.09
2019-01-29T08:35:05.155Z,53.66
2019-01-29T08:37:39.733Z,52.50
2019-01-29T08:40:13.506Z,52.07
2019-01-29T08:42:46.274Z,50.06
2019-01-29T08:45:19.216Z,46.63
2019-01-29T08:47:51.795Z,45.09
2019-01-29T08:50:24.968Z,44.04
2019-01-29T08:52:57.612Z,45.06
2019-01-29T08:55:30.280Z,47.40
2019-01-29T08:58:02.827Z,46.00
2019-01-29T09:00:35.670Z,45.53
2019-01-29T09:03:08.292Z,43.60
2019-01-29T09:05:40.966Z,44.46
2019-01-29T09:08:13.771Z,41.01
2019-01-29T09:10:45.926Z,43.17
2019-01-29T09:13:18.503Z,43.35
2019-01-29T09:15:51.138Z,41.59
2019-01-29T09:18:23.804Z,40.91
2019-01-29T09:20:56.387Z,40.65
2019-01-29T09:23:29.109Z,38.68
2019-01-29T09:26:01.817Z,37.92
2019-01-29T09:28:34.523Z,40.02
2019-01-29T09:31:09.954Z,40.77
2019-01-29T09:33:42.588Z,43.16
2019-01-29T09:36:15.204Z,43.33
2019-01-29T09:38:47.961Z,41.30
2019-01-29T09:41:20.677Z,38.33
2019-01-29T09:43:53.362Z,37.61
2019-01-29T09:46:26.032Z,36.54
2019-01-29T09:48:58.667Z,34.64
2019-01-29T09:51:31.470Z,34.78
2019-01-29T09:54:04.265Z,35.34
2019-01-29T09:56:38.115Z,35.06
2019-01-29T09:59:11.101Z,33.90
2019-01-29T10:01:43.898Z,34.51
2019-01-29T10:04:16.663Z,36.15
2019-01-29T10:06:49.400Z,37.37
2019-01-29T10:09:22.194Z,35.91
2019-01-29T10:11:55.006Z,37.83
2019-01-29T10:14:27.771Z,35.56
2019-01-29T10:17:00.435Z,35.41
2019-01-29T10:19:33.149Z,36.35
2019-01-29T10:22:06.003Z,44.28
2019-01-29T10:24:38.652Z,48.38
2019-01-29T10:27:11.274Z,47.92
2019-01-29T10:29:43.898Z,46.43
2019-01-29T10:32:16.115Z,47.17
2019-01-29T10:34:48.707Z,45.92
2019-01-29T10:37:21.336Z,42.05
2019-01-29T10:39:54.126Z,39.18
2019-01-29T10:42:26.952Z,35.89
2019-01-29T10:44:59.661Z,37.38
2019-01-29T10:47:32.436Z,37.92
2019-01-29T10:50:07.685Z,37.48
2019-01-29T10:52:40.809Z,35.74
2019-01-29T10:55:13.749Z,35.78
2019-01-29T10:57:47.154Z,33.78
2019-01-29T11:00:24.535Z,32.71
2019-01-29T11:02:57.326Z,31.37
2019-01-29T11:05:30.138Z,31.90
2019-01-29T11:08:02.888Z,33.36
2019-01-29T11:10:35.669Z,34.63
2019-01-29T11:13:08.712Z,36.54
2019-01-29T11:15:43.277Z,34.06
2019-01-29T11:18:18.043Z,34.43
2019-01-29T11:20:50.873Z,33.11
2019-01-29T11:23:23.587Z,33.16
2019-01-29T11:25:56.397Z,34.23
2019-01-29T11:28:29.124Z,32.07
2019-01-29T11:31:01.827Z,34.50
2019-01-29T11:33:34.560Z,32.88
2019-01-29T11:36:07.848Z,34.54
2019-01-29T11:38:40.645Z,37.21
2019-01-29T11:41:13.395Z,34.85
2019-01-29T11:43:46.094Z,31.41
2019-01-29T11:46:18.870Z,32.34
2019-01-29T11:48:51.623Z,30.61
2019-01-29T11:51:24.376Z,29.33
2019-01-29T11:53:57.088Z,28.82
2019-01-29T11:56:29.740Z,29.25
2019-01-29T11:59:02.675Z,28.22
2019-01-29T12:01:35.399Z,33.90
2019-01-29T12:04:08.493Z,35.19
2019-01-29T12:06:41.150Z,39.78
2019-01-29T12:09:13.981Z,40.24
2019-01-29T12:11:46.645Z,41.81
2019-01-29T12:14:19.302Z,42.70
2019-01-29T12:16:52.007Z,41.46
2019-01-29T12:19:24.732Z,43.75
2019-01-29T12:21:57.415Z,42.83
2019-01-29T12:24:30.125Z,41.74
2019-01-29T12:27:02.777Z,44.45
2019-01-29T12:29:35.412Z,46.45
2019-01-29T12:32:08.204Z,47.97
2019-01-29T12:34:40.974Z,47.85
2019-01-29T12:37:13.699Z,48.17
2019-01-29T12:39:46.374Z,47.00
2019-01-29T12:42:19.011Z,49.92
2019-01-29T12:44:51.678Z,48.47
2019-01-29T12:47:24.883Z,49.49
2019-01-29T12:49:57.486Z,48.81
2019-01-29T12:52:48.959Z,42.81
2019-01-29T12:55:21.637Z,42.77
2019-01-29T12:57:54.332Z,40.68
2019-01-29T13:00:29.645Z,35.42
2019-01-29T13:03:02.398Z,37.12
2019-01-29T13:05:35.205Z,35.69
2019-01-29T13:08:10.036Z,35.14
2019-01-29T13:10:42.795Z,33.96
2019-01-29T13:13:16.003Z,35.08
2019-01-29T13:15:48.813Z,34.68
2019-01-29T13:18:21.586Z,33.17
2019-01-29T13:20:54.324Z,32.92
2019-01-29T13:23:27.045Z,34.10
2019-01-29T13:25:59.802Z,34.31
2019-01-29T13:28:32.465Z,36.02
2019-01-29T13:31:05.261Z,36.30
2019-01-29T13:33:37.860Z,38.30
2019-01-29T13:36:10.704Z,39.22
2019-01-29T13:38:43.366Z,41.75
2019-01-29T13:41:16.097Z,41.76
2019-01-29T13:43:48.897Z,43.93
2019-01-29T13:46:21.642Z,46.52
2019-01-29T13:48:54.209Z,46.34
2019-01-29T13:51:26.907Z,46.69
2019-01-29T13:53:59.518Z,48.32
2019-01-29T13:56:38.772Z,47.99
2019-01-29T13:59:06.645Z,47.85
2019-01-29T14:01:39.233Z,47.75
2019-01-29T14:04:12.043Z,48.24
2019-01-29T14:06:44.652Z,49.80
2019-01-29T14:09:17.302Z,50.58
2019-01-29T14:11:49.998Z,53.50
2019-01-29T14:14:22.599Z,54.35
2019-01-29T14:16:55.184Z,54.53
2019-01-29T14:19:27.803Z,55.27
2019-01-29T14:22:00.386Z,56.44
2019-01-29T14:24:34.253Z,55.91
2019-01-29T14:27:06.804Z,56.17
2019-01-29T14:29:39.525Z,57.44
2019-01-29T14:32:12.108Z,56.30
2019-01-29T14:34:44.971Z,57.59
2019-01-29T14:37:17.724Z,56.76
2019-01-29T14:40:20.595Z,57.13
2019-01-29T14:42:53.211Z,57.16
2019-01-29T14:45:27.848Z,57.51
2019-01-29T14:48:00.535Z,57.78
2019-01-29T14:50:33.853Z,57.66
2019-01-29T14:53:06.447Z,58.81
2019-01-29T14:55:39.144Z,59.29
2019-01-29T14:58:11.905Z,59.52
2019-01-29T15:00:45.407Z,58.20
2019-01-29T15:03:18.038Z,56.21
2019-01-29T15:05:50.836Z,58.63
2019-01-29T15:08:23.481Z,59.71
2019-01-29T15:10:56.128Z,60.54
2019-01-29T15:13:28.763Z,60.06
2019-01-29T15:16:09.047Z,60.44
2019-01-29T15:18:46.767Z,61.12
2019-01-29T15:21:19.364Z,62.48
2019-01-29T15:23:51.920Z,62.29
2019-01-29T15:26:24.589Z,62.46
2019-01-29T15:28:57.164Z,64.35
2019-01-29T15:31:29.921Z,66.41
2019-01-29T15:34:02.554Z,66.13
2019-01-29T15:36:35.277Z,66.47
2019-01-29T15:39:10.589Z,66.52
2019-01-29T15:41:43.392Z,67.32
2019-01-29T15:44:16.172Z,68.09
2019-01-29T15:46:48.874Z,69.10
2019-01-29T15:49:21.619Z,71.19
2019-01-29T15:51:54.326Z,72.91
2019-01-29T15:54:27.160Z,73.23
2019-01-29T15:56:59.899Z,72.58
2019-01-29T15:59:32.635Z,73.64
2019-01-29T16:02:05.807Z,73.64
2019-01-29T16:04:38.472Z,74.04
2019-01-29T16:07:11.199Z,75.09
2019-01-29T16:09:43.833Z,77.01
2019-01-29T16:12:16.867Z,77.49
2019-01-29T16:14:49.539Z,77.11
2019-01-29T16:17:22.397Z,79.35
2019-01-29T16:19:55.058Z,79.79
2019-01-29T16:22:27.775Z,79.21
2019-01-29T16:25:00.417Z,80.11
2019-01-29T16:27:33.155Z,80.63
2019-01-29T16:30:07.784Z,80.87
2019-01-29T16:32:39.680Z,81.40
2019-01-29T16:35:15.532Z,80.74
2019-01-29T16:37:48.298Z,80.38
2019-01-29T16:40:22.593Z,80.59
2019-01-29T16:42:56.632Z,80.60
2019-01-29T16:45:32.463Z,80.45
2019-01-29T16:48:05.838Z,80.57
2019-01-29T16:50:38.768Z,80.33
2019-01-29T16:53:11.764Z,79.97
2019-01-29T16:55:44.462Z,80.55
2019-01-29T16:58:17.121Z,80.60
2019-01-29T17:00:49.871Z,81.03
2019-01-29T17:03:22.591Z,81.16
2019-01-29T17:05:55.335Z,81.47
2019-01-29T17:08:27.896Z,80.94
2019-01-29T17:11:00.583Z,80.81
2019-01-29T17:13:33.276Z,80.16
2019-01-29T17:16:06.252Z,81.21
2019-01-29T17:18:38.881Z,81.59
2019-01-29T17:21:11.517Z,81.43
2019-01-29T17:23:44.171Z,81.43
2019-01-29T17:26:19.660Z,81.61
2019-01-29T17:28:52.383Z,81.79
2019-01-29T17:31:25.203Z,81.91
2019-01-29T17:33:57.937Z,81.51
2019-01-29T17:36:30.628Z,81.35
2019-01-29T17:39:03.397Z,81.43
2019-01-29T17:41:36.082Z,81.89
2019-01-29T17:44:08.888Z,81.68
2019-01-29T17:46:41.652Z,81.25
2019-01-29T17:49:14.266Z,80.97
2019-01-29T17:51:46.893Z,80.90
2019-01-29T17:54:19.563Z,81.03
2019-01-29T17:56:52.206Z,80.91
2019-01-29T17:59:24.880Z,81.55
2019-01-29T18:01:57.715Z,80.10
2019-01-29T18:04:30.342Z,78.14
2019-01-29T18:07:03.091Z,78.91
2019-01-29T18:09:35.741Z,80.56
2019-01-29T18:12:08.421Z,80.10
2019-01-29T18:14:41.102Z,80.18
2019-01-29T18:17:13.698Z,80.85
2019-01-29T18:19:46.389Z,81.88
2019-01-29T18:22:19.278Z,82.80
2019-01-29T18:24:51.842Z,83.45
2019-01-29T18:27:24.550Z,82.60
2019-01-29T18:29:57.263Z,84.12
2019-01-29T18:32:29.978Z,85.11
2019-01-29T18:35:02.569Z,83.65
2019-01-29T18:37:35.201Z,83.68
2019-01-29T18:40:10.083Z,83.52
2019-01-29T18:42:42.924Z,83.54
2019-01-29T18:45:16.246Z,84.00
2019-01-29T18:47:49.071Z,84.30
2019-01-29T18:50:22.412Z,84.88
2019-01-29T18:52:55.189Z,85.44
2019-01-29T18:55:27.853Z,85.57
2019-01-29T18:58:00.500Z,83.89
2019-01-29T19:00:33.162Z,84.90
2019-01-29T19:03:05.949Z,84.49
2019-01-29T19:05:38.555Z,83.51
2019-01-29T19:08:11.257Z,83.41
2019-01-29T19:10:43.937Z,84.57
2019-01-29T19:13:16.535Z,85.17
2019-01-29T19:15:49.201Z,81.13
2019-01-29T19:18:21.929Z,82.73
2019-01-29T19:20:55.191Z,84.26
2019-01-29T19:23:27.988Z,85.33
2019-01-29T19:26:00.722Z,85.46
2019-01-29T19:28:33.468Z,85.94
2019-01-29T19:31:06.180Z,84.50
2019-01-29T19:33:38.869Z,84.08
2019-01-29T19:36:11.849Z,82.90
2019-01-29T19:38:44.563Z,82.64
2019-01-29T19:41:17.261Z,83.01
2019-01-29T19:43:49.482Z,84.03
2019-01-29T19:46:22.393Z,84.28
2019-01-29T19:48:55.132Z,80.50
2019-01-29T19:51:27.902Z,79.09
2019-01-29T19:54:00.556Z,74.86
2019-01-29T19:56:34.067Z,74.14
2019-01-29T19:59:07.473Z,74.07
2019-01-29T20:01:40.411Z,76.10
2019-01-29T20:04:13.291Z,73.09
2019-01-29T20:06:46.006Z,70.44
2019-01-29T20:09:18.789Z,69.54
2019-01-29T20:11:51.631Z,68.51
2019-01-29T20:14:24.354Z,67.55
2019-01-29T20:16:56.994Z,64.28
2019-01-29T20:19:29.717Z,60.99
2019-01-29T20:22:02.361Z,62.59
2019-01-29T20:24:35.136Z,62.31
2019-01-29T20:27:07.755Z,62.44
2019-01-29T20:29:40.377Z,60.64
2019-01-29T20:32:12.571Z,60.69
2019-01-29T20:34:45.129Z,62.52
2019-01-29T20:37:17.863Z,60.64
2019-01-29T20:39:50.540Z,61.96
2019-01-29T20:42:23.235Z,63.24
2019-01-29T20:44:55.843Z,61.05
2019-01-29T20:47:28.521Z,62.31
2019-01-29T20:50:01.194Z,61.68
2019-01-29T20:52:35.248Z,62.84
2019-01-29T20:55:11.609Z,65.18
2019-01-29T20:57:43.350Z,65.64
2019-01-29T21:00:31.562Z,69.05
2019-01-29T21:03:04.535Z,68.37
2019-01-29T21:05:37.527Z,70.59
2019-01-29T21:08:10.219Z,69.17
2019-01-29T21:10:42.871Z,68.21
2019-01-29T21:13:15.552Z,67.83
2019-01-29T21:15:48.228Z,72.12
2019-01-29T21:18:20.950Z,76.35
2019-01-29T21:20:57.097Z,75.70
2019-01-29T21:23:28.284Z,73.95
2019-01-29T21:26:00.979Z,73.54
2019-01-29T21:28:33.688Z,72.84
2019-01-29T21:31:06.539Z,71.37
2019-01-29T21:33:39.186Z,70.17
2019-01-29T21:36:11.920Z,70.58
2019-01-29T21:38:46.829Z,71.94
2019-01-29T21:41:19.430Z,71.96
2019-01-29T21:43:52.013Z,72.23
2019-01-29T21:46:24.730Z,72.53
2019-01-29T21:48:57.328Z,72.31
2019-01-29T21:51:29.959Z,73.39
2019-01-29T21:54:02.582Z,74.60
2019-01-29T21:56:35.257Z,74.81
2019-01-29T21:59:13.398Z,72.60
2019-01-29T22:01:42.314Z,72.62
2019-01-29T22:04:15.088Z,73.89
2019-01-29T22:06:47.645Z,73.46
2019-01-29T22:09:20.245Z,73.70
2019-01-29T22:11:52.941Z,73.94
2019-01-29T22:14:25.682Z,72.93
2019-01-29T22:16:58.263Z,73.15
2019-01-29T22:19:31.021Z,73.75
2019-01-29T22:22:03.635Z,73.89
2019-01-29T22:24:36.240Z,74.37
2019-01-29T22:27:09.025Z,75.65
2019-01-29T22:29:41.668Z,75.59
2019-01-29T22:32:14.452Z,75.23
2019-01-29T22:34:47.098Z,73.90
2019-01-29T22:37:19.740Z,73.86
2019-01-29T22:39:52.553Z,72.14
2019-01-29T22:42:28.049Z,70.32
2019-01-29T22:45:00.734Z,67.11
2019-01-29T22:47:33.312Z,67.21
2019-01-29T22:50:09.444Z,66.99
2019-01-29T22:52:42.131Z,65.29
2019-01-29T22:55:14.896Z,64.49
2019-01-29T22:57:49.179Z,67.21
2019-01-29T23:00:51.108Z,66.56
2019-01-29T23:03:30.508Z,63.66
2019-01-29T23:06:23.702Z,64.95
2019-01-29T23:08:56.416Z,64.42
2019-01-29T23:11:29.032Z,67.20
2019-01-29T23:14:01.719Z,69.10
2019-01-29T23:16:34.489Z,69.54
2019-01-29T23:19:07.611Z,70.05
2019-01-29T23:21:40.205Z,68.62
2019-01-29T23:24:12.844Z,68.32
2019-01-29T23:26:45.553Z,69.75
2019-01-29T23:29:18.150Z,70.00
2019-01-29T23:31:50.799Z,71.96
2019-01-29T23:34:23.372Z,71.37
2019-01-29T23:36:56.035Z,71.14
2019-01-29T23:39:28.578Z,71.21
2019-01-29T23:42:01.230Z,71.97
2019-01-29T23:44:34.057Z,71.04
2019-01-29T23:47:06.694Z,70.98
2019-01-29T23:49:39.299Z,71.55
2019-01-29T23:52:11.992Z,70.73
2019-01-29T23:54:44.571Z,71.21
2019-01-29T23:57:17.329Z,71.45
2019-01-29T23:59:53.769Z,71.94
